sensor_id;sensor_type;location;lat;lon;timestamp;temperature;humidity
36652;DHT22;53334;51.976;20.144;2023-01-08T00:00:26;25.60;49.60
36652;DHT22;53334;51.976;20.144;2023-01-08T00:03:00;25.60;49.60
36652;DHT22;53334;51.976;20.144;2023-01-08T00:05:35;25.60;49.60
36652;DHT22;53334;51.976;20.144;2023-01-08T00:08:08;25.60;49.60
36652;DHT22;53334;51.976;20.144;2023-01-08T00:10:42;25.60;49.50
36652;DHT22;53334;51.976;20.144;2023-01-08T00:13:15;25.60;49.40
36652;DHT22;53334;51.976;20.144;2023-01-08T00:15:49;25.60;49.40
36652;DHT22;53334;51.976;20.144;2023-01-08T00:18:22;25.60;49.50
36652;DHT22;53334;51.976;20.144;2023-01-08T00:20:59;25.60;49.70
36652;DHT22;53334;51.976;20.144;2023-01-08T00:23:33;25.60;49.70
36652;DHT22;53334;51.976;20.144;2023-01-08T00:26:08;25.60;49.80
36652;DHT22;53334;51.976;20.144;2023-01-08T00:28:42;25.50;50.20
36652;DHT22;53334;51.976;20.144;2023-01-08T00:31:15;25.60;50.30
36652;DHT22;53334;51.976;20.144;2023-01-08T00:33:48;25.60;50.50
36652;DHT22;53334;51.976;20.144;2023-01-08T00:36:23;25.50;50.50
36652;DHT22;53334;51.976;20.144;2023-01-08T00:38:57;25.50;50.70
36652;DHT22;53334;51.976;20.144;2023-01-08T00:41:31;25.60;50.90
36652;DHT22;53334;51.976;20.144;2023-01-08T00:44:05;25.60;51.10
36652;DHT22;53334;51.976;20.144;2023-01-08T00:46:38;25.60;51.30
36652;DHT22;53334;51.976;20.144;2023-01-08T00:49:11;25.60;51.60
36652;DHT22;53334;51.976;20.144;2023-01-08T00:51:46;25.60;51.30
36652;DHT22;53334;51.976;20.144;2023-01-08T00:54:19;25.60;51.40
36652;DHT22;53334;51.976;20.144;2023-01-08T00:56:54;25.60;51.50
36652;DHT22;53334;51.976;20.144;2023-01-08T00:59:27;25.60;51.60
36652;DHT22;53334;51.976;20.144;2023-01-08T01:02:00;25.60;51.40
36652;DHT22;53334;51.976;20.144;2023-01-08T01:04:34;25.60;51.60
36652;DHT22;53334;51.976;20.144;2023-01-08T01:07:09;25.60;52.10
36652;DHT22;53334;51.976;20.144;2023-01-08T01:09:42;25.60;52.10
36652;DHT22;53334;51.976;20.144;2023-01-08T01:12:16;25.60;52.30
36652;DHT22;53334;51.976;20.144;2023-01-08T01:14:49;25.60;52.20
36652;DHT22;53334;51.976;20.144;2023-01-08T01:17:22;25.60;52.30
36652;DHT22;53334;51.976;20.144;2023-01-08T01:19:56;25.60;52.40
36652;DHT22;53334;51.976;20.144;2023-01-08T01:22:31;25.60;52.60
36652;DHT22;53334;51.976;20.144;2023-01-08T01:25:05;25.60;52.60
36652;DHT22;53334;51.976;20.144;2023-01-08T01:27:38;25.60;52.40
36652;DHT22;53334;51.976;20.144;2023-01-08T01:30:12;25.60;52.60
36652;DHT22;53334;51.976;20.144;2023-01-08T01:32:45;25.60;52.70
36652;DHT22;53334;51.976;20.144;2023-01-08T01:35:19;25.60;52.70
36652;DHT22;53334;51.976;20.144;2023-01-08T01:37:53;25.60;52.90
36652;DHT22;53334;51.976;20.144;2023-01-08T01:40:27;25.60;52.70
36652;DHT22;53334;51.976;20.144;2023-01-08T01:43:00;25.60;52.70
36652;DHT22;53334;51.976;20.144;2023-01-08T01:45:33;25.60;52.60
36652;DHT22;53334;51.976;20.144;2023-01-08T01:48:10;25.60;52.70
36652;DHT22;53334;51.976;20.144;2023-01-08T01:50:46;25.60;53.00
36652;DHT22;53334;51.976;20.144;2023-01-08T01:53:24;25.60;53.20
36652;DHT22;53334;51.976;20.144;2023-01-08T01:55:59;25.60;53.20
36652;DHT22;53334;51.976;20.144;2023-01-08T01:58:33;25.60;53.30
36652;DHT22;53334;51.976;20.144;2023-01-08T02:01:07;25.60;53.40
36652;DHT22;53334;51.976;20.144;2023-01-08T02:03:42;25.60;53.40
36652;DHT22;53334;51.976;20.144;2023-01-08T02:06:22;25.70;53.40
36652;DHT22;53334;51.976;20.144;2023-01-08T02:09:03;25.70;53.70
36652;DHT22;53334;51.976;20.144;2023-01-08T02:11:45;25.70;54.30
36652;DHT22;53334;51.976;20.144;2023-01-08T02:14:25;25.70;53.80
36652;DHT22;53334;51.976;20.144;2023-01-08T02:17:05;25.70;53.90
36652;DHT22;53334;51.976;20.144;2023-01-08T02:19:42;25.60;53.80
36652;DHT22;53334;51.976;20.144;2023-01-08T02:22:32;25.60;53.70
36652;DHT22;53334;51.976;20.144;2023-01-08T02:25:13;25.70;53.90
36652;DHT22;53334;51.976;20.144;2023-01-08T02:27:52;25.70;53.70
36652;DHT22;53334;51.976;20.144;2023-01-08T02:30:26;25.60;53.60
36652;DHT22;53334;51.976;20.144;2023-01-08T02:33:00;25.60;53.50
36652;DHT22;53334;51.976;20.144;2023-01-08T02:35:37;25.60;53.50
36652;DHT22;53334;51.976;20.144;2023-01-08T02:38:13;25.60;53.30
36652;DHT22;53334;51.976;20.144;2023-01-08T02:40:54;25.60;53.20
36652;DHT22;53334;51.976;20.144;2023-01-08T02:43:35;25.60;53.10
36652;DHT22;53334;51.976;20.144;2023-01-08T02:46:16;25.60;53.10
36652;DHT22;53334;51.976;20.144;2023-01-08T02:48:55;25.60;53.00
36652;DHT22;53334;51.976;20.144;2023-01-08T02:51:34;25.60;53.00
36652;DHT22;53334;51.976;20.144;2023-01-08T02:54:15;25.60;53.80
36652;DHT22;53334;51.976;20.144;2023-01-08T02:56:52;25.60;54.60
36652;DHT22;53334;51.976;20.144;2023-01-08T02:59:30;25.60;55.00
36652;DHT22;53334;51.976;20.144;2023-01-08T03:02:05;25.60;55.00
36652;DHT22;53334;51.976;20.144;2023-01-08T03:04:53;25.70;55.30
36652;DHT22;53334;51.976;20.144;2023-01-08T03:07:28;25.60;55.60
36652;DHT22;53334;51.976;20.144;2023-01-08T03:10:02;25.60;55.10
36652;DHT22;53334;51.976;20.144;2023-01-08T03:12:44;25.70;55.20
36652;DHT22;53334;51.976;20.144;2023-01-08T03:15:24;25.60;55.30
36652;DHT22;53334;51.976;20.144;2023-01-08T03:18:03;25.60;55.10
36652;DHT22;53334;51.976;20.144;2023-01-08T03:20:38;25.60;55.00
36652;DHT22;53334;51.976;20.144;2023-01-08T03:23:11;25.60;55.10
36652;DHT22;53334;51.976;20.144;2023-01-08T03:25:47;25.60;55.00
36652;DHT22;53334;51.976;20.144;2023-01-08T03:28:21;25.60;55.00
36652;DHT22;53334;51.976;20.144;2023-01-08T03:30:57;25.60;55.00
36652;DHT22;53334;51.976;20.144;2023-01-08T03:33:31;25.60;54.90
36652;DHT22;53334;51.976;20.144;2023-01-08T03:36:06;25.60;54.90
36652;DHT22;53334;51.976;20.144;2023-01-08T03:38:43;25.60;54.70
36652;DHT22;53334;51.976;20.144;2023-01-08T03:41:20;25.60;54.80
36652;DHT22;53334;51.976;20.144;2023-01-08T03:43:55;25.60;54.70
36652;DHT22;53334;51.976;20.144;2023-01-08T03:46:32;25.60;54.70
36652;DHT22;53334;51.976;20.144;2023-01-08T03:49:07;25.60;54.60
36652;DHT22;53334;51.976;20.144;2023-01-08T03:51:41;25.60;54.70
36652;DHT22;53334;51.976;20.144;2023-01-08T03:54:17;25.60;54.50
36652;DHT22;53334;51.976;20.144;2023-01-08T03:56:51;25.60;54.60
36652;DHT22;53334;51.976;20.144;2023-01-08T03:59:24;25.60;54.60
36652;DHT22;53334;51.976;20.144;2023-01-08T04:01:59;25.60;54.50
36652;DHT22;53334;51.976;20.144;2023-01-08T04:04:33;25.60;54.50
36652;DHT22;53334;51.976;20.144;2023-01-08T04:07:06;25.60;54.50
36652;DHT22;53334;51.976;20.144;2023-01-08T04:09:41;25.50;54.60
36652;DHT22;53334;51.976;20.144;2023-01-08T04:12:15;25.60;54.50
36652;DHT22;53334;51.976;20.144;2023-01-08T04:14:48;25.60;55.20
36652;DHT22;53334;51.976;20.144;2023-01-08T04:17:23;25.50;54.60
36652;DHT22;53334;51.976;20.144;2023-01-08T04:19:56;25.60;54.60
36652;DHT22;53334;51.976;20.144;2023-01-08T04:22:30;25.50;54.50
36652;DHT22;53334;51.976;20.144;2023-01-08T04:25:04;25.50;54.50
36652;DHT22;53334;51.976;20.144;2023-01-08T04:27:37;25.50;54.50
36652;DHT22;53334;51.976;20.144;2023-01-08T04:30:11;25.50;54.40
36652;DHT22;53334;51.976;20.144;2023-01-08T04:32:46;25.50;54.50
36652;DHT22;53334;51.976;20.144;2023-01-08T04:35:19;25.60;54.50
36652;DHT22;53334;51.976;20.144;2023-01-08T04:37:53;25.50;54.50
36652;DHT22;53334;51.976;20.144;2023-01-08T04:40:26;25.60;54.50
36652;DHT22;53334;51.976;20.144;2023-01-08T04:43:00;25.50;54.50
36652;DHT22;53334;51.976;20.144;2023-01-08T04:45:33;25.50;54.40
36652;DHT22;53334;51.976;20.144;2023-01-08T04:48:08;25.50;55.10
36652;DHT22;53334;51.976;20.144;2023-01-08T04:50:41;25.60;54.60
36652;DHT22;53334;51.976;20.144;2023-01-08T04:53:14;25.50;54.60
36652;DHT22;53334;51.976;20.144;2023-01-08T04:55:48;25.50;54.70
36652;DHT22;53334;51.976;20.144;2023-01-08T04:58:21;25.60;54.60
36652;DHT22;53334;51.976;20.144;2023-01-08T05:00:55;25.60;54.70
36652;DHT22;53334;51.976;20.144;2023-01-08T05:03:29;25.50;54.70
36652;DHT22;53334;51.976;20.144;2023-01-08T05:06:04;25.50;54.70
36652;DHT22;53334;51.976;20.144;2023-01-08T05:08:37;25.60;54.80
36652;DHT22;53334;51.976;20.144;2023-01-08T05:11:10;25.60;54.80
36652;DHT22;53334;51.976;20.144;2023-01-08T05:13:46;25.50;54.70
36652;DHT22;53334;51.976;20.144;2023-01-08T05:16:20;25.50;54.70
36652;DHT22;53334;51.976;20.144;2023-01-08T05:18:55;25.50;54.60
36652;DHT22;53334;51.976;20.144;2023-01-08T05:21:28;25.60;54.70
36652;DHT22;53334;51.976;20.144;2023-01-08T05:24:02;25.60;54.70
36652;DHT22;53334;51.976;20.144;2023-01-08T05:26:35;25.50;54.60
36652;DHT22;53334;51.976;20.144;2023-01-08T05:29:09;25.50;54.60
36652;DHT22;53334;51.976;20.144;2023-01-08T05:31:42;25.50;54.70
36652;DHT22;53334;51.976;20.144;2023-01-08T05:34:17;25.50;54.80
36652;DHT22;53334;51.976;20.144;2023-01-08T05:36:50;25.50;54.80
36652;DHT22;53334;51.976;20.144;2023-01-08T05:39:24;25.50;54.80
36652;DHT22;53334;51.976;20.144;2023-01-08T05:41:57;25.50;54.60
36652;DHT22;53334;51.976;20.144;2023-01-08T05:44:30;25.50;54.70
36652;DHT22;53334;51.976;20.144;2023-01-08T05:47:04;25.60;54.90
36652;DHT22;53334;51.976;20.144;2023-01-08T05:49:38;25.60;54.80
36652;DHT22;53334;51.976;20.144;2023-01-08T05:52:12;25.50;54.80
36652;DHT22;53334;51.976;20.144;2023-01-08T05:54:45;25.50;54.80
36652;DHT22;53334;51.976;20.144;2023-01-08T05:57:18;25.60;54.80
36652;DHT22;53334;51.976;20.144;2023-01-08T05:59:52;25.50;54.70
36652;DHT22;53334;51.976;20.144;2023-01-08T06:02:25;25.50;54.70
36652;DHT22;53334;51.976;20.144;2023-01-08T06:05:00;25.50;54.80
36652;DHT22;53334;51.976;20.144;2023-01-08T06:07:33;25.50;54.80
36652;DHT22;53334;51.976;20.144;2023-01-08T06:10:08;25.50;54.90
36652;DHT22;53334;51.976;20.144;2023-01-08T06:12:41;25.50;54.80
36652;DHT22;53334;51.976;20.144;2023-01-08T06:15:14;25.50;54.80
36652;DHT22;53334;51.976;20.144;2023-01-08T06:17:48;25.50;54.80
36652;DHT22;53334;51.976;20.144;2023-01-08T06:20:23;25.50;54.90
36652;DHT22;53334;51.976;20.144;2023-01-08T06:22:56;25.50;54.90
36652;DHT22;53334;51.976;20.144;2023-01-08T06:25:29;25.50;55.00
36652;DHT22;53334;51.976;20.144;2023-01-08T06:28:03;25.50;54.80
36652;DHT22;53334;51.976;20.144;2023-01-08T06:30:37;25.50;54.90
36652;DHT22;53334;51.976;20.144;2023-01-08T06:33:10;25.50;54.80
36652;DHT22;53334;51.976;20.144;2023-01-08T06:35:45;25.50;54.80
36652;DHT22;53334;51.976;20.144;2023-01-08T06:38:18;25.50;54.80
36652;DHT22;53334;51.976;20.144;2023-01-08T06:40:51;25.50;54.70
36652;DHT22;53334;51.976;20.144;2023-01-08T06:43:25;25.50;54.70
36652;DHT22;53334;51.976;20.144;2023-01-08T06:45:58;25.50;54.70
36652;DHT22;53334;51.976;20.144;2023-01-08T06:48:31;25.50;54.80
36652;DHT22;53334;51.976;20.144;2023-01-08T06:51:06;25.50;54.90
36652;DHT22;53334;51.976;20.144;2023-01-08T06:53:40;25.50;55.00
36652;DHT22;53334;51.976;20.144;2023-01-08T06:56:13;25.50;54.90
36652;DHT22;53334;51.976;20.144;2023-01-08T06:58:46;25.50;55.00
36652;DHT22;53334;51.976;20.144;2023-01-08T07:01:19;25.50;54.90
36652;DHT22;53334;51.976;20.144;2023-01-08T07:03:54;25.50;54.80
36652;DHT22;53334;51.976;20.144;2023-01-08T07:06:29;25.50;54.90
36652;DHT22;53334;51.976;20.144;2023-01-08T07:09:02;25.50;54.90
36652;DHT22;53334;51.976;20.144;2023-01-08T07:11:36;25.50;55.00
36652;DHT22;53334;51.976;20.144;2023-01-08T07:14:09;25.50;54.90
36652;DHT22;53334;51.976;20.144;2023-01-08T07:16:42;25.50;54.90
36652;DHT22;53334;51.976;20.144;2023-01-08T07:19:16;25.50;54.80
36652;DHT22;53334;51.976;20.144;2023-01-08T07:21:50;25.50;54.80
36652;DHT22;53334;51.976;20.144;2023-01-08T07:24:24;25.50;54.80
36652;DHT22;53334;51.976;20.144;2023-01-08T07:26:57;25.50;54.80
36652;DHT22;53334;51.976;20.144;2023-01-08T07:29:31;25.50;54.80
36652;DHT22;53334;51.976;20.144;2023-01-08T07:32:04;25.50;54.70
36652;DHT22;53334;51.976;20.144;2023-01-08T07:34:38;25.50;54.80
36652;DHT22;53334;51.976;20.144;2023-01-08T07:37:13;25.50;54.80
36652;DHT22;53334;51.976;20.144;2023-01-08T07:39:46;25.50;54.90
36652;DHT22;53334;51.976;20.144;2023-01-08T07:42:19;25.50;55.00
36652;DHT22;53334;51.976;20.144;2023-01-08T07:44:53;25.50;55.00
36652;DHT22;53334;51.976;20.144;2023-01-08T07:47:26;25.50;55.00
36652;DHT22;53334;51.976;20.144;2023-01-08T07:49:59;25.50;55.00
36652;DHT22;53334;51.976;20.144;2023-01-08T07:52:34;25.50;55.00
36652;DHT22;53334;51.976;20.144;2023-01-08T07:55:08;25.50;54.90
36652;DHT22;53334;51.976;20.144;2023-01-08T07:57:41;25.50;55.00
36652;DHT22;53334;51.976;20.144;2023-01-08T08:00:15;25.50;55.00
36652;DHT22;53334;51.976;20.144;2023-01-08T08:02:48;25.50;55.00
36652;DHT22;53334;51.976;20.144;2023-01-08T08:05:22;25.50;54.90
36652;DHT22;53334;51.976;20.144;2023-01-08T08:07:57;25.50;54.90
36652;DHT22;53334;51.976;20.144;2023-01-08T08:10:30;25.50;54.80
36652;DHT22;53334;51.976;20.144;2023-01-08T08:13:04;25.50;55.00
36652;DHT22;53334;51.976;20.144;2023-01-08T08:15:38;25.50;54.90
36652;DHT22;53334;51.976;20.144;2023-01-08T08:18:12;25.50;55.00
36652;DHT22;53334;51.976;20.144;2023-01-08T08:20:45;25.50;54.80
36652;DHT22;53334;51.976;20.144;2023-01-08T08:23:24;25.50;54.70
36652;DHT22;53334;51.976;20.144;2023-01-08T08:25:57;25.50;54.80
36652;DHT22;53334;51.976;20.144;2023-01-08T08:28:31;25.50;55.00
36652;DHT22;53334;51.976;20.144;2023-01-08T08:31:04;25.50;54.90
36652;DHT22;53334;51.976;20.144;2023-01-08T08:33:38;25.50;54.70
36652;DHT22;53334;51.976;20.144;2023-01-08T08:36:11;25.50;54.50
36652;DHT22;53334;51.976;20.144;2023-01-08T08:38:46;25.50;54.30
36652;DHT22;53334;51.976;20.144;2023-01-08T08:41:19;25.50;54.20
36652;DHT22;53334;51.976;20.144;2023-01-08T08:43:53;25.50;54.10
36652;DHT22;53334;51.976;20.144;2023-01-08T08:46:26;25.50;54.10
36652;DHT22;53334;51.976;20.144;2023-01-08T08:49:01;25.50;54.30
36652;DHT22;53334;51.976;20.144;2023-01-08T08:51:34;25.50;54.30
36652;DHT22;53334;51.976;20.144;2023-01-08T08:54:11;25.50;54.30
36652;DHT22;53334;51.976;20.144;2023-01-08T08:56:46;25.50;54.50
36652;DHT22;53334;51.976;20.144;2023-01-08T08:59:19;25.50;54.50
36652;DHT22;53334;51.976;20.144;2023-01-08T09:01:53;25.50;54.70
36652;DHT22;53334;51.976;20.144;2023-01-08T09:04:29;25.50;55.00
36652;DHT22;53334;51.976;20.144;2023-01-08T09:07:02;25.60;55.20
36652;DHT22;53334;51.976;20.144;2023-01-08T09:09:37;25.60;55.50
36652;DHT22;53334;51.976;20.144;2023-01-08T09:12:11;25.60;55.70
36652;DHT22;53334;51.976;20.144;2023-01-08T09:14:44;25.60;56.00
36652;DHT22;53334;51.976;20.144;2023-01-08T09:17:17;25.60;56.10
36652;DHT22;53334;51.976;20.144;2023-01-08T09:19:52;25.60;56.40
36652;DHT22;53334;51.976;20.144;2023-01-08T09:22:25;25.70;56.90
36652;DHT22;53334;51.976;20.144;2023-01-08T09:25:00;25.70;58.40
36652;DHT22;53334;51.976;20.144;2023-01-08T09:27:33;25.70;59.60
36652;DHT22;53334;51.976;20.144;2023-01-08T09:30:08;25.70;60.40
36652;DHT22;53334;51.976;20.144;2023-01-08T09:32:41;25.80;61.00
36652;DHT22;53334;51.976;20.144;2023-01-08T09:35:14;25.70;45.50
36652;DHT22;53334;51.976;20.144;2023-01-08T09:37:49;25.50;38.20
36652;DHT22;53334;51.976;20.144;2023-01-08T09:40:29;25.10;35.10
36652;DHT22;53334;51.976;20.144;2023-01-08T09:43:04;24.70;35.30
36652;DHT22;53334;51.976;20.144;2023-01-08T09:45:38;24.60;38.50
36652;DHT22;53334;51.976;20.144;2023-01-08T09:48:14;24.50;40.30
36652;DHT22;53334;51.976;20.144;2023-01-08T09:50:49;24.60;41.40
36652;DHT22;53334;51.976;20.144;2023-01-08T09:53:22;24.60;42.30
36652;DHT22;53334;51.976;20.144;2023-01-08T09:56:02;24.60;42.70
36652;DHT22;53334;51.976;20.144;2023-01-08T09:58:43;24.70;43.70
36652;DHT22;53334;51.976;20.144;2023-01-08T10:01:20;24.70;44.10
36652;DHT22;53334;51.976;20.144;2023-01-08T10:03:59;24.80;44.60
36652;DHT22;53334;51.976;20.144;2023-01-08T10:06:36;24.80;45.90
36652;DHT22;53334;51.976;20.144;2023-01-08T10:09:10;24.90;47.00
36652;DHT22;53334;51.976;20.144;2023-01-08T10:11:46;24.90;47.70
36652;DHT22;53334;51.976;20.144;2023-01-08T10:14:23;25.00;48.20
36652;DHT22;53334;51.976;20.144;2023-01-08T10:16:59;25.00;48.40
36652;DHT22;53334;51.976;20.144;2023-01-08T10:19:34;25.00;48.80
36652;DHT22;53334;51.976;20.144;2023-01-08T10:22:10;25.10;49.00
36652;DHT22;53334;51.976;20.144;2023-01-08T10:24:45;25.10;48.60
36652;DHT22;53334;51.976;20.144;2023-01-08T10:27:21;25.10;48.50
36652;DHT22;53334;51.976;20.144;2023-01-08T10:30:04;25.20;48.60
36652;DHT22;53334;51.976;20.144;2023-01-08T10:32:37;25.20;48.50
36652;DHT22;53334;51.976;20.144;2023-01-08T10:35:16;25.10;48.40
36652;DHT22;53334;51.976;20.144;2023-01-08T10:37:51;25.20;48.20
36652;DHT22;53334;51.976;20.144;2023-01-08T10:40:27;25.20;47.90
36652;DHT22;53334;51.976;20.144;2023-01-08T10:43:08;25.20;47.90
36652;DHT22;53334;51.976;20.144;2023-01-08T10:45:54;25.20;47.80
36652;DHT22;53334;51.976;20.144;2023-01-08T10:48:32;25.20;47.60
36652;DHT22;53334;51.976;20.144;2023-01-08T10:51:12;25.20;47.60
36652;DHT22;53334;51.976;20.144;2023-01-08T10:53:46;25.20;47.50
36652;DHT22;53334;51.976;20.144;2023-01-08T10:56:21;25.20;47.20
36652;DHT22;53334;51.976;20.144;2023-01-08T10:58:56;25.20;46.70
36652;DHT22;53334;51.976;20.144;2023-01-08T11:01:31;25.10;46.30
36652;DHT22;53334;51.976;20.144;2023-01-08T11:04:05;25.20;46.00
36652;DHT22;53334;51.976;20.144;2023-01-08T11:06:40;25.20;45.40
36652;DHT22;53334;51.976;20.144;2023-01-08T11:09:31;25.10;46.20
36652;DHT22;53334;51.976;20.144;2023-01-08T11:12:29;25.10;45.70
36652;DHT22;53334;51.976;20.144;2023-01-08T11:15:06;25.10;45.40
36652;DHT22;53334;51.976;20.144;2023-01-08T11:17:40;25.10;39.30
36652;DHT22;53334;51.976;20.144;2023-01-08T11:20:20;24.90;34.90
36652;DHT22;53334;51.976;20.144;2023-01-08T11:23:03;24.70;33.40
36652;DHT22;53334;51.976;20.144;2023-01-08T11:25:38;24.50;35.10
36652;DHT22;53334;51.976;20.144;2023-01-08T11:28:15;24.50;36.50
36652;DHT22;53334;51.976;20.144;2023-01-08T11:30:59;24.40;38.00
36652;DHT22;53334;51.976;20.144;2023-01-08T11:33:36;24.40;38.00
36652;DHT22;53334;51.976;20.144;2023-01-08T11:36:19;24.40;38.70
36652;DHT22;53334;51.976;20.144;2023-01-08T11:38:54;24.50;39.90
36652;DHT22;53334;51.976;20.144;2023-01-08T11:41:44;24.50;40.00
36652;DHT22;53334;51.976;20.144;2023-01-08T11:44:32;24.50;41.20
36652;DHT22;53334;51.976;20.144;2023-01-08T11:47:13;24.50;40.80
36652;DHT22;53334;51.976;20.144;2023-01-08T11:50:09;24.60;41.10
36652;DHT22;53334;51.976;20.144;2023-01-08T11:52:54;24.60;41.10
36652;DHT22;53334;51.976;20.144;2023-01-08T11:55:45;24.60;40.90
36652;DHT22;53334;51.976;20.144;2023-01-08T11:58:29;24.60;41.70
36652;DHT22;53334;51.976;20.144;2023-01-08T12:01:22;24.60;41.70
36652;DHT22;53334;51.976;20.144;2023-01-08T12:04:12;24.60;40.90
36652;DHT22;53334;51.976;20.144;2023-01-08T12:06:55;24.60;41.60
36652;DHT22;53334;51.976;20.144;2023-01-08T12:09:37;24.60;41.30
36652;DHT22;53334;51.976;20.144;2023-01-08T12:12:22;24.70;41.20
36652;DHT22;53334;51.976;20.144;2023-01-08T12:15:06;24.70;40.90
36652;DHT22;53334;51.976;20.144;2023-01-08T12:17:52;24.70;40.90
36652;DHT22;53334;51.976;20.144;2023-01-08T12:20:35;24.70;42.00
36652;DHT22;53334;51.976;20.144;2023-01-08T12:23:21;24.70;41.30
36652;DHT22;53334;51.976;20.144;2023-01-08T12:26:08;24.70;41.40
36652;DHT22;53334;51.976;20.144;2023-01-08T12:29:05;24.80;41.30
36652;DHT22;53334;51.976;20.144;2023-01-08T12:32:01;24.80;41.50
36652;DHT22;53334;51.976;20.144;2023-01-08T12:34:48;24.80;41.50
36652;DHT22;53334;51.976;20.144;2023-01-08T12:37:27;24.80;40.80
36652;DHT22;53334;51.976;20.144;2023-01-08T12:40:11;24.80;40.90
36652;DHT22;53334;51.976;20.144;2023-01-08T12:42:45;24.80;41.70
36652;DHT22;53334;51.976;20.144;2023-01-08T12:45:34;24.80;41.20
36652;DHT22;53334;51.976;20.144;2023-01-08T12:48:13;24.80;41.10
36652;DHT22;53334;51.976;20.144;2023-01-08T12:50:55;24.80;41.40
36652;DHT22;53334;51.976;20.144;2023-01-08T12:53:38;24.80;41.60
36652;DHT22;53334;51.976;20.144;2023-01-08T12:56:15;24.80;41.70
36652;DHT22;53334;51.976;20.144;2023-01-08T12:59:03;24.80;41.50
36652;DHT22;53334;51.976;20.144;2023-01-08T13:01:44;24.80;41.70
36652;DHT22;53334;51.976;20.144;2023-01-08T13:04:20;24.80;41.70
36652;DHT22;53334;51.976;20.144;2023-01-08T13:06:56;24.90;41.80
36652;DHT22;53334;51.976;20.144;2023-01-08T13:09:33;24.80;42.40
36652;DHT22;53334;51.976;20.144;2023-01-08T13:12:07;24.90;41.90
36652;DHT22;53334;51.976;20.144;2023-01-08T13:14:48;24.90;41.90
36652;DHT22;53334;51.976;20.144;2023-01-08T13:17:24;24.90;41.90
36652;DHT22;53334;51.976;20.144;2023-01-08T13:20:00;24.90;42.80
36652;DHT22;53334;51.976;20.144;2023-01-08T13:22:35;24.90;43.80
36652;DHT22;53334;51.976;20.144;2023-01-08T13:25:30;24.90;44.20
36652;DHT22;53334;51.976;20.144;2023-01-08T13:28:21;25.00;44.30
36652;DHT22;53334;51.976;20.144;2023-01-08T13:31:07;25.00;44.40
36652;DHT22;53334;51.976;20.144;2023-01-08T13:33:41;25.00;44.60
36652;DHT22;53334;51.976;20.144;2023-01-08T13:36:21;25.00;44.80
36652;DHT22;53334;51.976;20.144;2023-01-08T13:39:03;25.00;44.80
36652;DHT22;53334;51.976;20.144;2023-01-08T13:41:41;25.00;45.30
36652;DHT22;53334;51.976;20.144;2023-01-08T13:44:24;25.00;45.50
36652;DHT22;53334;51.976;20.144;2023-01-08T13:47:01;25.00;45.90
36652;DHT22;53334;51.976;20.144;2023-01-08T13:49:40;25.00;46.40
36652;DHT22;53334;51.976;20.144;2023-01-08T13:52:30;25.00;46.50
36652;DHT22;53334;51.976;20.144;2023-01-08T13:55:10;25.00;47.10
36652;DHT22;53334;51.976;20.144;2023-01-08T13:57:49;25.00;48.20
36652;DHT22;53334;51.976;20.144;2023-01-08T14:00:27;25.10;48.50
36652;DHT22;53334;51.976;20.144;2023-01-08T14:03:01;25.10;49.30
36652;DHT22;53334;51.976;20.144;2023-01-08T14:05:35;25.10;48.60
36652;DHT22;53334;51.976;20.144;2023-01-08T14:08:20;25.10;48.50
36652;DHT22;53334;51.976;20.144;2023-01-08T14:10:54;25.10;48.40
36652;DHT22;53334;51.976;20.144;2023-01-08T14:13:30;25.10;49.40
36652;DHT22;53334;51.976;20.144;2023-01-08T14:16:06;25.10;50.10
36652;DHT22;53334;51.976;20.144;2023-01-08T14:18:44;25.10;50.20
36652;DHT22;53334;51.976;20.144;2023-01-08T14:21:20;25.10;50.00
36652;DHT22;53334;51.976;20.144;2023-01-08T14:23:54;25.20;49.50
36652;DHT22;53334;51.976;20.144;2023-01-08T14:26:31;25.20;48.90
36652;DHT22;53334;51.976;20.144;2023-01-08T14:29:13;25.20;48.20
36652;DHT22;53334;51.976;20.144;2023-01-08T14:31:48;25.20;48.30
36652;DHT22;53334;51.976;20.144;2023-01-08T14:34:24;25.20;47.80
36652;DHT22;53334;51.976;20.144;2023-01-08T14:36:58;25.20;47.90
36652;DHT22;53334;51.976;20.144;2023-01-08T14:39:33;25.20;48.00
36652;DHT22;53334;51.976;20.144;2023-01-08T14:42:12;25.20;48.10
36652;DHT22;53334;51.976;20.144;2023-01-08T14:45:09;25.20;48.20
36652;DHT22;53334;51.976;20.144;2023-01-08T14:47:49;25.20;48.50
36652;DHT22;53334;51.976;20.144;2023-01-08T14:50:24;25.20;48.90
36652;DHT22;53334;51.976;20.144;2023-01-08T14:53:04;25.20;49.30
36652;DHT22;53334;51.976;20.144;2023-01-08T14:55:42;25.20;50.00
36652;DHT22;53334;51.976;20.144;2023-01-08T14:58:19;25.30;50.30
36652;DHT22;53334;51.976;20.144;2023-01-08T15:00:57;25.30;50.80
36652;DHT22;53334;51.976;20.144;2023-01-08T15:03:33;25.30;51.50
36652;DHT22;53334;51.976;20.144;2023-01-08T15:06:07;25.40;52.10
36652;DHT22;53334;51.976;20.144;2023-01-08T15:08:43;25.40;52.40
36652;DHT22;53334;51.976;20.144;2023-01-08T15:11:21;25.40;53.00
36652;DHT22;53334;51.976;20.144;2023-01-08T15:13:55;25.40;53.10
36652;DHT22;53334;51.976;20.144;2023-01-08T15:16:32;25.50;53.60
36652;DHT22;53334;51.976;20.144;2023-01-08T15:19:09;25.50;53.60
36652;DHT22;53334;51.976;20.144;2023-01-08T15:21:45;25.50;53.30
36652;DHT22;53334;51.976;20.144;2023-01-08T15:24:22;25.50;53.30
36652;DHT22;53334;51.976;20.144;2023-01-08T15:26:56;25.50;53.70
36652;DHT22;53334;51.976;20.144;2023-01-08T15:29:31;25.50;53.90
36652;DHT22;53334;51.976;20.144;2023-01-08T15:32:10;25.50;54.60
36652;DHT22;53334;51.976;20.144;2023-01-08T15:34:51;25.60;55.20
36652;DHT22;53334;51.976;20.144;2023-01-08T15:37:24;25.60;55.20
36652;DHT22;53334;51.976;20.144;2023-01-08T15:39:58;25.60;55.20
36652;DHT22;53334;51.976;20.144;2023-01-08T15:42:32;25.60;55.40
36652;DHT22;53334;51.976;20.144;2023-01-08T15:45:26;25.60;55.50
36652;DHT22;53334;51.976;20.144;2023-01-08T15:48:01;25.70;55.40
36652;DHT22;53334;51.976;20.144;2023-01-08T15:50:36;25.70;55.20
36652;DHT22;53334;51.976;20.144;2023-01-08T15:53:15;25.70;54.90
36652;DHT22;53334;51.976;20.144;2023-01-08T15:55:50;25.70;54.70
36652;DHT22;53334;51.976;20.144;2023-01-08T15:58:23;25.70;54.60
36652;DHT22;53334;51.976;20.144;2023-01-08T16:00:57;25.70;54.60
36652;DHT22;53334;51.976;20.144;2023-01-08T16:03:32;25.70;54.60
36652;DHT22;53334;51.976;20.144;2023-01-08T16:06:07;25.70;53.70
36652;DHT22;53334;51.976;20.144;2023-01-08T16:08:40;25.70;52.90
36652;DHT22;53334;51.976;20.144;2023-01-08T16:11:17;25.60;51.60